Terminal Aerodrome Forecast
Issued by NWS

Current Version | Previous Version | Text Only | Print | Product List | Glossary On
Versions: 1 2 3 4 5 6 7 8 9 10 11 12 13 14 15 16
000
FTUS44 KSJT 062300
TAFBBD
TAF
KBBD 062338Z 0700/0724 17012KT P6SM SCT250
     FM070500 16010KT P6SM BKN250
     FM071000 15010KT P6SM BKN015
     FM071600 16011KT P6SM BKN030
     FM071800 16012KT P6SM BKN040=

USA.gov is the U.S. government's official web portal to all federal, state and local government web resources and services.